Anacoco, Louisiana
Current Conditions -  °F | °C
As of 9:56 AM on Saturday 25 Oct 2014 (Local Time) from KAQV Reporting Station
Clear Clear  
Wind Chill: 71°   Ceiling: Unl
Heat Index: 71°   Visibility: 10mi
Dew Point: 55°   Wind: 3mph
Humidity: 57%   Direction: 250°WSW
Pressure: 30.17"   Gusts: NA
Location:  31.25°N, 93.34°W
Report Text: KAQV 251456Z AUTO 25003KT 10SM CLR 22/13 A3017 RMK AO2 SLP214 T02170128 52008
Loading
Personal Weather Stations






























Interactive Weather Map New forecast layout! Learn more

10-Day Weather Forecast

Advertisements
Track Severe Weather on mobile